createdAt,value
2023-04-17T00:00:38.123Z,100564.59
2023-04-17T00:03:04.811Z,100567.53
2023-04-17T00:05:31.942Z,100565.81
2023-04-17T00:07:59.996Z,100562.41
2023-04-17T00:10:26.646Z,100564.72
2023-04-17T00:12:53.225Z,100557.81
2023-04-17T00:15:19.711Z,100558.34
2023-04-17T00:17:46.228Z,100563.72
2023-04-17T00:20:13.383Z,100557.50
2023-04-17T00:22:39.878Z,100563.59
2023-04-17T00:25:06.983Z,100563.97
2023-04-17T00:27:33.620Z,100571.34
2023-04-17T00:30:00.242Z,100565.34
2023-04-17T00:32:26.775Z,100562.19
2023-04-17T00:34:55.593Z,100561.06
2023-04-17T00:37:22.475Z,100560.19
2023-04-17T00:39:48.960Z,100566.44
2023-04-17T00:42:15.432Z,100567.03
2023-04-17T00:44:41.910Z,100571.34
2023-04-17T00:47:08.614Z,100577.19
2023-04-17T00:49:35.373Z,100585.88
2023-04-17T00:52:02.668Z,100579.66
2023-04-17T00:54:29.436Z,100585.19
2023-04-17T00:56:56.693Z,100583.34
2023-04-17T00:59:24.033Z,100573.19
2023-04-17T01:01:50.651Z,100576.25
2023-04-17T01:04:17.216Z,100589.34
2023-04-17T01:06:43.742Z,100586.66
2023-04-17T01:09:11.452Z,100588.97
2023-04-17T01:11:39.231Z,100592.28
2023-04-17T01:14:05.816Z,100583.56
2023-04-17T01:16:32.349Z,100581.63
2023-04-17T01:18:59.522Z,100591.91
2023-04-17T01:21:26.153Z,100585.66
2023-04-17T01:23:53.335Z,100581.63
2023-04-17T01:26:23.607Z,100585.41
2023-04-17T01:28:59.779Z,100582.38
2023-04-17T01:31:27.832Z,100583.22
2023-04-17T01:33:54.431Z,100581.91
2023-04-17T01:36:20.870Z,100591.91
2023-04-17T01:38:47.435Z,100590.31
2023-04-17T01:41:13.968Z,100582.84
2023-04-17T01:43:42.871Z,100587.41
2023-04-17T01:46:10.108Z,100587.25
2023-04-17T01:48:36.968Z,100594.38
2023-04-17T01:51:04.137Z,100584.09
2023-04-17T01:53:31.356Z,100589.13
2023-04-17T01:55:58.102Z,100593.66
2023-04-17T01:58:24.617Z,100598.53
2023-04-17T02:00:51.979Z,100595.72
2023-04-17T02:03:19.319Z,100596.06
2023-04-17T02:05:48.417Z,100600.38
2023-04-17T02:08:15.132Z,100597.66
2023-04-17T02:10:42.287Z,100596.56
2023-04-17T02:13:10.087Z,100599.00
2023-04-17T02:15:39.952Z,100595.81
2023-04-17T02:18:06.831Z,100598.28
2023-04-17T02:20:34.050Z,100601.47
2023-04-17T02:23:01.263Z,100604.66
2023-04-17T02:25:28.333Z,100600.50
2023-04-17T02:27:56.223Z,100603.19
2023-04-17T02:30:26.688Z,100602.81
2023-04-17T02:32:54.076Z,100598.53
2023-04-17T02:35:22.476Z,100596.81
2023-04-17T02:37:49.054Z,100610.66
2023-04-17T02:40:16.245Z,100611.50
2023-04-17T02:42:42.747Z,100604.66
2023-04-17T02:45:11.118Z,100608.31
2023-04-17T02:47:38.079Z,100608.66
2023-04-17T02:50:05.706Z,100605.53
2023-04-17T02:52:33.980Z,100615.19
2023-04-17T02:55:00.577Z,100613.81
2023-04-17T02:57:27.091Z,100607.72
2023-04-17T02:59:53.736Z,100611.13
2023-04-17T03:02:23.363Z,100610.88
2023-04-17T03:04:50.627Z,100615.88
2023-04-17T03:07:20.682Z,100609.66
2023-04-17T03:09:47.631Z,100622.00
2023-04-17T03:12:14.792Z,100620.78
2023-04-17T03:14:41.929Z,100616.41
2023-04-17T03:17:10.102Z,100626.06
2023-04-17T03:19:36.584Z,100623.84
2023-04-17T03:22:03.328Z,100633.91
2023-04-17T03:24:30.064Z,100635.97
2023-04-17T03:26:56.579Z,100635.75
2023-04-17T03:29:23.459Z,100636.47
2023-04-17T03:31:50.014Z,100635.00
2023-04-17T03:34:17.751Z,100636.97
2023-04-17T03:36:44.504Z,100631.69
2023-04-17T03:39:11.564Z,100639.91
2023-04-17T03:41:38.731Z,100644.31
2023-04-17T03:44:05.683Z,100636.72
2023-04-17T03:46:32.266Z,100641.50
2023-04-17T03:48:58.769Z,100641.50
2023-04-17T03:51:27.294Z,100646.53
2023-04-17T03:53:53.799Z,100635.97
2023-04-17T03:56:20.552Z,100652.75
2023-04-17T03:58:47.113Z,100654.13
2023-04-17T04:01:14.695Z,100659.25
2023-04-17T04:03:41.494Z,100655.69
2023-04-17T04:06:08.271Z,100656.19
2023-04-17T04:08:34.762Z,100660.38
2023-04-17T04:11:02.179Z,100660.84
2023-04-17T04:13:28.728Z,100658.66
2023-04-17T04:15:55.234Z,100674.69
2023-04-17T04:18:21.749Z,100679.09
2023-04-17T04:20:48.367Z,100679.47
2023-04-17T04:23:16.661Z,100683.25
2023-04-17T04:25:43.530Z,100681.78
2023-04-17T04:28:11.188Z,100678.25
2023-04-17T04:30:38.728Z,100685.56
2023-04-17T04:33:06.184Z,100681.69
2023-04-17T04:35:32.831Z,100686.06
2023-04-17T04:38:02.946Z,100691.72
2023-04-17T04:40:30.798Z,100701.38
2023-04-17T04:42:57.323Z,100691.56
2023-04-17T04:45:23.987Z,100694.28
2023-04-17T04:47:50.707Z,100694.53
2023-04-17T04:50:17.656Z,100694.53
2023-04-17T04:52:44.253Z,100705.91
2023-04-17T04:55:12.699Z,100699.28
2023-04-17T04:57:39.713Z,100702.00
2023-04-17T05:00:08.044Z,100698.09
2023-04-17T05:02:34.810Z,100699.41
2023-04-17T05:05:01.800Z,100694.78
2023-04-17T05:07:28.632Z,100702.50
2023-04-17T05:09:55.559Z,100694.66
2023-04-17T05:12:22.125Z,100697.56
2023-04-17T05:14:49.217Z,100703.34
2023-04-17T05:17:15.864Z,100707.75
2023-04-17T05:19:42.525Z,100698.47
2023-04-17T05:22:10.293Z,100700.53
2023-04-17T05:24:36.872Z,100703.59
2023-04-17T05:27:04.234Z,100709.97
2023-04-17T05:29:32.718Z,100704.06
2023-04-17T05:31:59.298Z,100711.19
2023-04-17T05:34:26.322Z,100710.44
2023-04-17T05:36:52.942Z,100712.88
2023-04-17T05:39:19.516Z,100711.78
2023-04-17T05:41:46.145Z,100710.06
2023-04-17T05:44:12.838Z,100706.03
2023-04-17T05:46:39.307Z,100708.84
2023-04-17T05:49:05.774Z,100712.28
2023-04-17T05:51:32.300Z,100713.00
2023-04-17T05:53:58.907Z,100709.59
2023-04-17T05:56:25.665Z,100710.69
2023-04-17T05:58:52.154Z,100708.84
2023-04-17T06:01:22.380Z,100702.22
2023-04-17T06:03:49.258Z,100706.09
2023-04-17T06:06:16.658Z,100707.53
2023-04-17T06:08:43.139Z,100705.16
2023-04-17T06:11:10.349Z,100713.50
2023-04-17T06:13:37.007Z,100715.97
2023-04-17T06:16:03.601Z,100717.44
2023-04-17T06:18:30.239Z,100723.22
2023-04-17T06:20:56.857Z,100729.13
2023-04-17T06:23:23.351Z,100725.91
2023-04-17T06:25:50.303Z,100727.19
2023-04-17T06:28:17.112Z,100729.03
2023-04-17T06:30:43.664Z,100722.28
2023-04-17T06:33:11.260Z,100733.09
2023-04-17T06:35:38.012Z,100736.13
2023-04-17T06:38:04.577Z,100727.56
2023-04-17T06:40:31.354Z,100730.00
2023-04-17T06:42:57.958Z,100737.19
2023-04-17T06:45:24.762Z,100722.72
2023-04-17T06:47:51.398Z,100734.81
2023-04-17T06:50:18.277Z,100735.97
2023-04-17T06:52:44.965Z,100730.94
2023-04-17T06:55:11.717Z,100740.84
2023-04-17T06:57:39.260Z,100744.63
2023-04-17T07:00:07.796Z,100745.06
2023-04-17T07:02:34.581Z,100749.91
2023-04-17T07:05:01.511Z,100740.81
2023-04-17T07:07:30.636Z,100750.78
2023-04-17T07:09:57.608Z,100749.81
2023-04-17T07:12:24.114Z,100759.63
2023-04-17T07:14:51.164Z,100758.06
2023-04-17T07:17:18.163Z,100755.06
2023-04-17T07:19:44.794Z,100746.22
2023-04-17T07:22:11.952Z,100763.59
2023-04-17T07:24:38.614Z,100762.91
2023-04-17T07:27:06.649Z,100755.94
2023-04-17T07:29:33.362Z,100759.94
2023-04-17T07:31:59.922Z,100769.50
2023-04-17T07:34:27.415Z,100770.22
2023-04-17T07:36:54.011Z,100769.06
2023-04-17T07:39:21.053Z,100771.06
2023-04-17T07:41:48.617Z,100773.47
2023-04-17T07:44:15.347Z,100766.16
2023-04-17T07:46:42.142Z,100769.09
2023-04-17T07:49:10.752Z,100777.84
2023-04-17T07:51:41.115Z,100785.00
2023-04-17T07:54:07.800Z,100780.00
2023-04-17T07:56:34.688Z,100763.91
2023-04-17T07:59:01.325Z,100775.63
2023-04-17T08:01:28.118Z,100776.78
2023-04-17T08:03:55.734Z,100780.75
2023-04-17T08:06:22.572Z,100773.97
2023-04-17T08:08:49.279Z,100777.16
2023-04-17T08:11:15.909Z,100774.06
2023-04-17T08:13:42.613Z,100773.91
2023-04-17T08:16:11.076Z,100783.75
2023-04-17T08:18:40.023Z,100792.88
2023-04-17T08:21:11.332Z,100786.75
2023-04-17T08:23:37.996Z,100798.28
2023-04-17T08:26:04.973Z,100804.13
2023-04-17T08:28:31.818Z,100801.44
2023-04-17T08:30:58.635Z,100796.16
2023-04-17T08:33:25.373Z,100793.19
2023-04-17T08:35:52.100Z,100799.59
2023-04-17T08:38:18.753Z,100796.88
2023-04-17T08:40:51.958Z,100799.00
2023-04-17T08:43:21.125Z,100793.25
2023-04-17T08:45:53.900Z,100803.53
2023-04-17T08:48:22.039Z,100801.97
2023-04-17T08:50:50.204Z,100808.53
2023-04-17T08:53:17.657Z,100797.59
2023-04-17T08:55:45.450Z,100803.25
2023-04-17T08:58:12.855Z,100810.13
2023-04-17T09:00:41.080Z,100812.25
2023-04-17T09:03:11.479Z,100810.25
2023-04-17T09:05:42.107Z,100809.00
2023-04-17T09:08:16.578Z,100818.66
2023-04-17T09:10:48.774Z,100812.63
2023-04-17T09:13:18.115Z,100817.34
2023-04-17T09:15:46.233Z,100806.88
2023-04-17T09:18:31.192Z,100808.31
2023-04-17T09:21:00.008Z,100817.44
2023-04-17T09:23:27.795Z,100821.22
2023-04-17T09:26:14.347Z,100817.13
2023-04-17T09:28:41.671Z,100818.16
2023-04-17T09:31:20.098Z,100822.63
2023-04-17T09:34:07.450Z,100822.78
2023-04-17T09:36:36.839Z,100822.09
2023-04-17T09:39:05.352Z,100834.09
2023-04-17T09:41:39.476Z,100830.53
2023-04-17T09:44:06.227Z,100830.38
2023-04-17T09:46:40.681Z,100832.19
2023-04-17T09:49:30.329Z,100831.00
2023-04-17T09:51:57.849Z,100838.28
2023-04-17T09:54:25.187Z,100834.53
2023-04-17T09:56:55.958Z,100833.44
2023-04-17T09:59:24.905Z,100825.53
2023-04-17T10:01:54.323Z,100828.63
2023-04-17T10:04:21.895Z,100824.44
2023-04-17T10:06:49.820Z,100820.97
2023-04-17T10:09:16.584Z,100820.44
2023-04-17T10:11:45.085Z,100828.16
2023-04-17T10:14:16.097Z,100826.56
2023-04-17T10:16:43.754Z,100835.47
2023-04-17T10:19:31.046Z,100832.03
2023-04-17T10:22:15.710Z,100833.88
2023-04-17T10:24:43.258Z,100831.22
2023-04-17T10:27:32.814Z,100831.91
2023-04-17T10:30:01.727Z,100835.75
2023-04-17T10:32:29.255Z,100826.63
2023-04-17T10:35:04.955Z,100830.16
2023-04-17T10:38:04.791Z,100828.22
2023-04-17T10:40:33.719Z,100832.88
2023-04-17T10:43:04.766Z,100824.34
2023-04-17T10:46:06.179Z,100816.44
2023-04-17T10:48:42.904Z,100821.88
2023-04-17T10:51:21.665Z,100819.69
2023-04-17T10:53:49.943Z,100815.88
2023-04-17T10:56:23.920Z,100820.84
2023-04-17T10:58:57.765Z,100817.28
2023-04-17T11:01:46.012Z,100814.94
2023-04-17T11:04:19.615Z,100816.00
2023-04-17T11:06:47.611Z,100812.22
2023-04-17T11:09:15.211Z,100814.09
2023-04-17T11:11:45.024Z,100816.84
2023-04-17T11:14:21.249Z,100811.25
2023-04-17T11:16:49.388Z,100805.16
2023-04-17T11:19:21.505Z,100809.72
2023-04-17T11:21:50.280Z,100810.56
2023-04-17T11:24:37.285Z,100816.13
2023-04-17T11:27:05.223Z,100813.16
2023-04-17T11:29:31.795Z,100817.75
2023-04-17T11:32:00.702Z,100805.47
2023-04-17T11:34:27.596Z,100810.06
2023-04-17T11:36:56.722Z,100807.03
2023-04-17T11:39:25.031Z,100809.44
2023-04-17T11:41:52.579Z,100815.84
2023-04-17T11:44:22.752Z,100804.19
2023-04-17T11:46:53.434Z,100806.16
2023-04-17T11:49:30.596Z,100798.50
2023-04-17T11:51:59.838Z,100800.81
2023-04-17T11:54:27.938Z,100808.00
2023-04-17T11:57:02.320Z,100797.31
2023-04-17T11:59:34.293Z,100791.13
2023-04-17T12:02:02.133Z,100802.38
2023-04-17T12:04:31.093Z,100789.94
2023-04-17T12:06:59.672Z,100801.53
2023-04-17T12:09:31.573Z,100800.81
2023-04-17T12:11:59.120Z,100797.84
2023-04-17T12:14:26.498Z,100803.28
2023-04-17T12:16:53.669Z,100802.34
2023-04-17T12:19:20.310Z,100813.72
2023-04-17T12:21:49.832Z,100802.66
2023-04-17T12:24:19.690Z,100808.88
2023-04-17T12:26:47.497Z,100800.34
2023-04-17T12:29:15.211Z,100815.44
2023-04-17T12:31:41.912Z,100809.13
2023-04-17T12:34:08.614Z,100809.63
2023-04-17T12:36:35.488Z,100802.50
2023-04-17T12:39:02.626Z,100807.19
2023-04-17T12:41:30.175Z,100806.97
2023-04-17T12:44:00.114Z,100816.41
2023-04-17T12:46:26.979Z,100809.66
2023-04-17T12:48:58.543Z,100806.34
2023-04-17T12:51:28.104Z,100809.53
2023-04-17T12:53:55.597Z,100813.09
2023-04-17T12:56:22.486Z,100819.84
2023-04-17T12:58:49.054Z,100815.88
2023-04-17T13:01:16.220Z,100814.97
2023-04-17T13:03:43.202Z,100817.75
2023-04-17T13:06:10.318Z,100809.13
2023-04-17T13:08:36.941Z,100814.63
2023-04-17T13:11:06.549Z,100821.59
2023-04-17T13:13:33.157Z,100816.06
2023-04-17T13:16:00.136Z,100817.28
2023-04-17T13:18:26.740Z,100818.00
2023-04-17T13:20:53.381Z,100817.75
2023-04-17T13:23:20.600Z,100812.88
2023-04-17T13:25:48.478Z,100819.47
2023-04-17T13:28:15.161Z,100810.16
2023-04-17T13:30:41.817Z,100816.69
2023-04-17T13:33:08.377Z,100811.13
2023-04-17T13:35:35.159Z,100815.94
2023-04-17T13:38:03.024Z,100819.72
2023-04-17T13:40:30.397Z,100815.59
2023-04-17T13:42:57.076Z,100814.66
2023-04-17T13:45:23.825Z,100818.06
2023-04-17T13:47:50.485Z,100818.44
2023-04-17T13:50:17.149Z,100812.47
2023-04-17T13:52:43.673Z,100815.13
2023-04-17T13:55:14.415Z,100828.75
2023-04-17T13:57:41.035Z,100824.16
2023-04-17T14:00:08.299Z,100824.13
2023-04-17T14:02:35.226Z,100829.84
2023-04-17T14:05:02.358Z,100812.63
2023-04-17T14:07:30.006Z,100817.75
2023-04-17T14:09:56.706Z,100815.59
2023-04-17T14:12:23.716Z,100823.81
2023-04-17T14:14:50.244Z,100818.16
2023-04-17T14:17:16.870Z,100825.53
2023-04-17T14:19:43.327Z,100816.72
2023-04-17T14:22:10.447Z,100811.88
2023-04-17T14:24:37.069Z,100816.84
2023-04-17T14:27:03.955Z,100808.03
2023-04-17T14:29:30.840Z,100814.50
2023-04-17T14:31:58.072Z,100818.59
2023-04-17T14:34:24.909Z,100819.88
2023-04-17T14:36:51.449Z,100823.72
2023-04-17T14:39:19.640Z,100809.34
2023-04-17T14:41:46.328Z,100812.34
2023-04-17T14:44:13.244Z,100816.63
2023-04-17T14:46:40.492Z,100812.00
2023-04-17T14:49:07.294Z,100814.72
2023-04-17T14:51:33.840Z,100817.28
2023-04-17T14:54:00.702Z,100815.88
2023-04-17T14:56:27.373Z,100819.06
2023-04-17T14:58:53.910Z,100809.22
2023-04-17T15:01:20.805Z,100817.44
2023-04-17T15:03:48.891Z,100817.91
2023-04-17T15:06:16.368Z,100815.53
2023-04-17T15:08:43.136Z,100814.81
2023-04-17T15:11:10.100Z,100820.09
2023-04-17T15:13:36.805Z,100814.97
2023-04-17T15:16:03.700Z,100817.16
2023-04-17T15:18:30.720Z,100817.38
2023-04-17T15:20:57.398Z,100812.88
2023-04-17T15:23:26.446Z,100810.63
2023-04-17T15:25:57.693Z,100822.53
2023-04-17T15:28:25.242Z,100819.31
2023-04-17T15:30:51.804Z,100819.56
2023-04-17T15:33:18.435Z,100817.56
2023-04-17T15:35:45.181Z,100809.66
2023-04-17T15:38:11.969Z,100815.81
2023-04-17T15:40:38.732Z,100818.19
2023-04-17T15:43:05.297Z,100825.53
2023-04-17T15:45:31.987Z,100820.91
2023-04-17T15:47:58.911Z,100828.31
2023-04-17T15:50:25.472Z,100822.06
2023-04-17T15:52:52.074Z,100821.53
2023-04-17T15:55:18.831Z,100823.06
2023-04-17T15:57:45.595Z,100833.94
2023-04-17T16:00:12.836Z,100827.13
2023-04-17T16:02:39.738Z,100827.84
2023-04-17T16:05:06.845Z,100829.34
2023-04-17T16:07:33.339Z,100828.47
2023-04-17T16:10:00.573Z,100827.53
2023-04-17T16:12:28.385Z,100836.19
2023-04-17T16:14:54.934Z,100836.53
2023-04-17T16:17:21.893Z,100833.00
2023-04-17T16:19:50.467Z,100832.00
2023-04-17T16:22:18.449Z,100848.38
2023-04-17T16:24:44.942Z,100831.44
2023-04-17T16:27:11.891Z,100836.78
2023-04-17T16:29:38.400Z,100845.78
2023-04-17T16:32:05.005Z,100845.94
2023-04-17T16:34:31.849Z,100840.22
2023-04-17T16:36:58.373Z,100846.25
2023-04-17T16:39:25.000Z,100845.97
2023-04-17T16:41:52.909Z,100848.69
2023-04-17T16:44:19.641Z,100855.59
2023-04-17T16:47:05.538Z,100848.19
2023-04-17T16:49:32.811Z,100855.31
2023-04-17T16:51:59.746Z,100865.03
2023-04-17T16:54:26.267Z,100858.47
2023-04-17T16:56:52.980Z,100866.44
2023-04-17T16:59:19.701Z,100861.31
2023-04-17T17:01:47.276Z,100867.06
2023-04-17T17:04:13.926Z,100868.66
2023-04-17T17:06:40.553Z,100872.63
2023-04-17T17:09:07.174Z,100876.34
2023-04-17T17:11:33.966Z,100881.47
2023-04-17T17:14:01.017Z,100882.47
2023-04-17T17:16:27.539Z,100888.03
2023-04-17T17:18:54.394Z,100889.91
2023-04-17T17:21:21.317Z,100886.34
2023-04-17T17:23:49.191Z,100892.34
2023-04-17T17:26:17.521Z,100890.31
2023-04-17T17:28:51.046Z,100898.44
2023-04-17T17:31:18.375Z,100892.59
2023-04-17T17:33:50.016Z,100896.72
2023-04-17T17:36:17.244Z,100896.31
2023-04-17T17:38:44.259Z,100904.13
2023-04-17T17:41:11.704Z,100901.66
2023-04-17T17:43:38.296Z,100911.50
2023-04-17T17:46:05.282Z,100913.78
2023-04-17T17:48:31.987Z,100909.63
2023-04-17T17:50:58.740Z,100908.38
2023-04-17T17:53:26.979Z,100908.06
2023-04-17T17:55:55.658Z,100916.31
2023-04-17T17:58:22.869Z,100913.84
2023-04-17T18:00:50.460Z,100922.97
2023-04-17T18:03:17.471Z,100921.69
2023-04-17T18:05:46.519Z,100923.22
2023-04-17T18:08:13.682Z,100928.50
2023-04-17T18:10:40.411Z,100919.94
2023-04-17T18:13:07.131Z,100929.16
2023-04-17T18:15:34.082Z,100926.34
2023-04-17T18:18:00.794Z,100928.06
2023-04-17T18:20:27.552Z,100937.28
2023-04-17T18:22:54.240Z,100932.41
2023-04-17T18:25:21.169Z,100930.97
2023-04-17T18:27:47.907Z,100933.69
2023-04-17T18:30:15.131Z,100939.75
2023-04-17T18:32:41.650Z,100947.34
2023-04-17T18:35:09.288Z,100946.75
2023-04-17T18:37:36.507Z,100946.31
2023-04-17T18:40:03.294Z,100947.78
2023-04-17T18:42:30.023Z,100961.06
2023-04-17T18:44:56.574Z,100951.03
2023-04-17T18:47:23.137Z,100956.16
2023-04-17T18:49:52.399Z,100953.00
2023-04-17T18:52:19.393Z,100950.69
2023-04-17T18:54:45.971Z,100965.81
2023-04-17T18:57:12.426Z,100959.69
2023-04-17T18:59:40.450Z,100956.25
2023-04-17T19:02:07.971Z,100956.66
2023-04-17T19:04:34.633Z,100962.94
2023-04-17T19:07:02.705Z,100955.31
2023-04-17T19:09:29.336Z,100953.16
2023-04-17T19:11:57.520Z,100962.06
2023-04-17T19:14:24.645Z,100960.25
2023-04-17T19:16:51.286Z,100962.91
2023-04-17T19:19:17.939Z,100954.50
2023-04-17T19:21:44.471Z,100958.94
2023-04-17T19:24:11.395Z,100960.34
2023-04-17T19:26:38.141Z,100972.97
2023-04-17T19:29:05.105Z,100964.72
2023-04-17T19:31:32.953Z,100964.03
2023-04-17T19:34:00.493Z,100966.53
2023-04-17T19:36:28.120Z,100965.41
2023-04-17T19:38:55.748Z,100967.97
2023-04-17T19:41:22.396Z,100971.16
2023-04-17T19:43:50.820Z,100974.63
2023-04-17T19:46:18.173Z,100974.50
2023-04-17T19:48:46.017Z,100966.38
2023-04-17T19:51:13.427Z,100978.56
2023-04-17T19:53:41.332Z,100967.41
2023-04-17T19:56:10.573Z,100964.06
2023-04-17T19:58:37.782Z,100970.72
2023-04-17T20:01:04.612Z,100967.28
2023-04-17T20:03:32.434Z,100955.28
2023-04-17T20:05:59.842Z,100963.50
2023-04-17T20:08:26.480Z,100970.50
2023-04-17T20:10:53.025Z,100967.81
2023-04-17T20:13:19.719Z,100967.31
2023-04-17T20:15:46.438Z,100956.63
2023-04-17T20:18:13.375Z,100966.69
2023-04-17T20:20:40.152Z,100964.28
2023-04-17T20:23:06.680Z,100973.59
2023-04-17T20:25:33.169Z,100970.66
2023-04-17T20:28:02.768Z,100976.13
2023-04-17T20:30:29.841Z,100976.50
2023-04-17T20:32:56.848Z,100979.06
2023-04-17T20:35:26.455Z,100982.13
2023-04-17T20:37:53.177Z,100970.22
2023-04-17T20:40:20.021Z,100979.91
2023-04-17T20:42:47.497Z,100965.31
2023-04-17T20:45:14.374Z,100979.81
2023-04-17T20:47:55.960Z,100974.13
2023-04-17T20:50:24.227Z,100974.88
2023-04-17T20:52:51.163Z,100980.41
2023-04-17T20:55:20.865Z,100987.06
2023-04-17T20:57:47.829Z,100983.16
2023-04-17T21:00:14.603Z,100983.84
2023-04-17T21:02:41.621Z,100992.47
2023-04-17T21:05:10.486Z,100997.00
2023-04-17T21:07:37.088Z,100997.84
2023-04-17T21:10:03.966Z,100987.53
2023-04-17T21:12:32.898Z,100990.97
2023-04-17T21:14:59.751Z,100991.25
2023-04-17T21:17:26.488Z,100996.38
2023-04-17T21:19:55.724Z,101000.47
2023-04-17T21:22:22.622Z,101001.19
2023-04-17T21:24:49.290Z,100999.47
2023-04-17T21:27:15.935Z,101001.19
2023-04-17T21:29:42.742Z,101001.19
2023-04-17T21:32:10.540Z,101008.03
2023-04-17T21:34:37.183Z,101001.78
2023-04-17T21:37:05.058Z,101002.66
2023-04-17T21:39:33.296Z,101006.47
2023-04-17T21:42:00.286Z,101004.25
2023-04-17T21:44:26.794Z,101004.88
2023-04-17T21:46:53.349Z,101001.81
2023-04-17T21:49:20.645Z,100999.63
2023-04-17T21:51:47.206Z,101005.13
2023-04-17T21:54:14.134Z,101006.00
2023-04-17T21:56:41.189Z,100992.75
2023-04-17T21:59:07.876Z,100999.88
2023-04-17T22:01:34.501Z,101004.13
2023-04-17T22:04:01.725Z,101003.16
2023-04-17T22:06:28.259Z,101011.63
2023-04-17T22:08:54.764Z,101000.69
2023-04-17T22:11:21.326Z,101009.91
2023-04-17T22:13:47.796Z,100995.75
2023-04-17T22:16:14.386Z,101006.34
2023-04-17T22:18:40.907Z,101003.69
2023-04-17T22:21:07.564Z,101005.28
2023-04-17T22:23:34.041Z,100999.75
2023-04-17T22:26:00.772Z,101005.22
2023-04-17T22:28:31.251Z,101006.47
2023-04-17T22:30:58.918Z,101005.22
2023-04-17T22:33:26.126Z,101008.94
2023-04-17T22:35:52.963Z,101004.97
2023-04-17T22:38:20.912Z,101008.28
2023-04-17T22:40:47.946Z,101013.25
2023-04-17T22:43:14.642Z,101018.97
2023-04-17T22:45:41.258Z,101032.97
2023-04-17T22:48:07.790Z,101032.25
2023-04-17T22:50:34.421Z,101025.34
2023-04-17T22:53:00.871Z,101017.63
2023-04-17T22:55:27.663Z,101019.63
2023-04-17T22:57:54.352Z,101011.13
2023-04-17T23:00:21.096Z,101009.34
2023-04-17T23:02:47.686Z,101005.41
2023-04-17T23:05:14.611Z,101007.47
2023-04-17T23:07:41.261Z,101013.59
2023-04-17T23:10:08.103Z,101014.06
2023-04-17T23:12:34.709Z,101011.25
2023-04-17T23:15:01.326Z,101013.03
2023-04-17T23:17:27.854Z,101017.78
2023-04-17T23:19:54.569Z,101003.22
2023-04-17T23:22:21.046Z,101008.56
2023-04-17T23:24:47.496Z,101016.28
2023-04-17T23:27:13.983Z,101013.69
2023-04-17T23:29:40.436Z,101019.31
2023-04-17T23:32:07.435Z,101005.09
2023-04-17T23:34:34.080Z,101007.25
2023-04-17T23:37:02.586Z,101007.88
2023-04-17T23:39:29.323Z,101001.31
2023-04-17T23:41:55.850Z,101007.28
2023-04-17T23:44:22.383Z,101009.84
2023-04-17T23:46:48.887Z,101019.78
2023-04-17T23:49:15.374Z,101005.69
2023-04-17T23:51:41.837Z,101008.25
2023-04-17T23:54:08.301Z,101002.28
2023-04-17T23:56:34.831Z,101008.69
2023-04-17T23:59:01.410Z,101009.72
